Time;durP1;ratioP1;P1;durP2;ratioP2;P2;SDS_P1;SDS_P2;PMS_P1;PMS_P2;Temp;Humidity;BMP_temperature;BMP_pressure;BME280_temperature;BME280_humidity;BME280_pressure;Samples;Min_cycle;Max_cycle;Signal;HPM_P1;HPM_P2
2024/01/29 00:00:46;;;;;;;40.00;12.40;;;;;;;-141.97;73.01;46099.00;4992165;28;20171;-84
2024/01/29 00:03:12;;;;;;;49.83;14.13;;;;;;;-141.97;73.23;46133.56;4959521;28;20187;-85
2024/01/29 00:05:37;;;;;;;32.60;10.87;;;;;;;-141.97;73.28;45962.59;4959328;28;20163;-84
2024/01/29 00:08:03;;;;;;;43.70;13.93;;;;;;;-141.97;73.26;46060.56;4991973;28;20172;-84
2024/01/29 00:10:29;;;;;;;52.00;15.70;;;;;;;-141.97;73.36;46446.75;4962488;28;20186;-83
2024/01/29 00:12:54;;;;;;;39.63;12.20;;;;;;;-141.97;74.06;46068.25;4975751;28;20195;-84
2024/01/29 00:15:20;;;;;;;40.83;13.60;;;;;;;-141.97;74.24;46114.34;4993284;28;20226;-83
2024/01/29 00:17:45;;;;;;;36.20;12.10;;;;;;;-141.97;74.60;46081.69;4993052;28;20237;-83
2024/01/29 00:20:11;;;;;;;22.27;8.93;;;;;;;-141.97;75.24;45910.72;4975340;28;20164;-83
2024/01/29 00:22:36;;;;;;;35.93;13.93;;;;;;;-141.97;75.29;46116.28;4991683;28;20310;-84
2024/01/29 00:25:02;;;;;;;31.10;10.73;;;;;;;-141.97;75.26;46135.50;4993225;28;20222;-84
2024/01/29 00:27:28;;;;;;;46.30;16.03;;;;;;;-141.97;75.39;46125.88;4993323;28;20497;-85
2024/01/29 00:29:53;;;;;;;21.87;8.87;;;;;;;-141.97;75.10;46281.50;4959834;28;20172;-83
2024/01/29 00:32:19;;;;;;;17.03;7.40;;;;;;;-141.97;74.86;45916.47;4959635;28;20619;-84
2024/01/29 00:34:46;;;;;;;12.00;5.83;;;;;;;-141.97;75.23;46123.97;4975636;28;20196;-83
2024/01/29 00:37:11;;;;;;;9.90;6.20;;;;;;;-141.97;75.67;46118.19;4975887;28;20303;-83
2024/01/29 00:39:37;;;;;;;12.80;6.13;;;;;;;-141.97;77.19;46123.97;4992235;28;20407;-84
2024/01/29 00:42:03;;;;;;;12.30;5.90;;;;;;;-141.97;77.33;46097.06;4974824;28;20242;-83
2024/01/29 00:44:28;;;;;;;13.07;6.50;;;;;;;-141.97;77.68;46150.84;4992723;28;20209;-83
2024/01/29 00:46:54;;;;;;;11.33;5.97;;;;;;;-141.97;77.92;46122.03;4992102;28;20159;-84
2024/01/29 00:49:19;;;;;;;14.27;6.10;;;;;;;-141.97;78.15;46118.19;4992801;28;20194;-83
2024/01/29 00:51:44;;;;;;;11.53;5.70;;;;;;;-141.97;78.28;46346.84;4992697;28;20237;-84
2024/01/29 00:54:10;;;;;;;9.77;5.53;;;;;;;-141.97;78.46;46143.19;4992590;28;20287;-84
2024/01/29 00:56:35;;;;;;;8.70;5.17;;;;;;;-141.97;78.20;45893.41;4979394;28;20175;-83
2024/01/29 00:59:01;;;;;;;9.80;5.20;;;;;;;-141.97;79.40;46147.03;4993453;28;20251;-83
2024/01/29 01:01:26;;;;;;;8.83;4.90;;;;;;;-141.97;80.87;46129.72;4992671;28;20174;-83
2024/01/29 01:03:52;;;;;;;7.87;5.00;;;;;;;-141.97;81.98;46139.34;5014914;28;20147;-83
2024/01/29 01:06:17;;;;;;;10.03;4.90;;;;;;;-141.97;81.22;46139.34;5015626;28;20191;-84
2024/01/29 01:08:42;;;;;;;9.20;5.30;;;;;;;-141.97;81.26;46412.16;4999687;28;20214;-84
2024/01/29 01:11:08;;;;;;;9.80;5.10;;;;;;;-141.97;80.48;46352.59;5000171;28;20163;-84
2024/01/29 01:13:33;;;;;;;10.40;5.00;;;;;;;-141.97;80.94;46123.97;5016445;28;20184;-84
2024/01/29 01:15:59;;;;;;;8.20;4.73;;;;;;;-141.97;81.11;46001.00;4991878;28;20164;-84
2024/01/29 01:18:24;;;;;;;9.70;4.60;;;;;;;-141.97;81.95;45866.53;4994850;28;20164;-83
2024/01/29 01:20:49;;;;;;;7.40;4.63;;;;;;;-141.97;81.97;46137.41;4977561;28;20255;-83
2024/01/29 01:23:15;;;;;;;8.73;5.07;;;;;;;-141.97;83.50;46016.38;4980870;28;20189;-83
2024/01/29 01:25:40;;;;;;;6.60;4.20;;;;;;;-141.97;83.60;46056.72;4975824;28;20218;-84
2024/01/29 01:28:07;;;;;;;9.53;4.90;;;;;;;-141.97;84.09;46147.03;4974661;28;20556;-83
2024/01/29 01:30:32;;;;;;;7.47;4.80;;;;;;;-141.97;84.41;46123.97;4974574;28;20532;-86
2024/01/29 01:32:58;;;;;;;8.63;4.67;;;;;;;-141.97;83.92;46490.94;4974751;28;20516;-85
2024/01/29 01:35:23;;;;;;;9.57;5.10;;;;;;;-141.97;83.73;46050.97;4990325;28;20172;-84
2024/01/29 01:37:48;;;;;;;10.33;4.73;;;;;;;-141.97;83.33;46154.69;5001028;28;20186;-84
2024/01/29 01:40:14;;;;;;;8.87;4.17;;;;;;;-141.97;83.54;46147.03;4993685;28;20174;-84
2024/01/29 01:42:44;;;;;;;11.00;5.00;;;;;;;-141.97;84.68;46339.16;5010123;28;20163;-83
2024/01/29 01:45:10;;;;;;;9.07;5.10;;;;;;;-141.97;84.90;46154.69;5010039;28;20913;-84
2024/01/29 01:47:36;;;;;;;9.37;4.73;;;;;;;-141.97;85.27;46385.25;4977287;28;20539;-84
2024/01/29 01:50:03;;;;;;;7.37;3.47;;;;;;;-141.97;85.65;46404.47;4993646;28;20518;-83
2024/01/29 01:52:28;;;;;;;5.70;2.67;;;;;;;-141.97;86.63;46081.69;4993250;28;20449;-82
2024/01/29 01:54:54;;;;;;;5.33;3.07;;;;;;;-141.97;87.21;46239.25;4977555;28;20459;-83
2024/01/29 01:57:19;;;;;;;8.57;4.37;;;;;;;-141.97;87.35;46212.34;4976801;28;20190;-83
2024/01/29 01:59:45;;;;;;;8.03;4.53;;;;;;;-141.97;87.35;46460.19;4993535;28;20177;-83
2024/01/29 02:02:10;;;;;;;8.37;4.67;;;;;;;-141.97;87.04;46158.53;5009959;28;20163;-83
2024/01/29 02:04:36;;;;;;;9.07;5.00;;;;;;;-141.97;86.89;46177.75;5011104;28;20162;-84
2024/01/29 02:07:01;;;;;;;9.47;4.53;;;;;;;-141.97;86.98;46027.91;4993548;28;20163;-84
2024/01/29 02:09:26;;;;;;;9.67;5.37;;;;;;;-141.97;86.78;46154.69;4993739;28;20174;-83
2024/01/29 02:11:52;;;;;;;9.33;4.50;;;;;;;-141.97;86.49;46168.16;5010225;28;20155;-84
2024/01/29 02:14:17;;;;;;;8.17;4.30;;;;;;;-141.97;86.88;46318.00;4993344;28;20217;-83
2024/01/29 02:16:43;;;;;;;8.97;4.90;;;;;;;-141.97;87.38;46120.13;5010942;28;20159;-83
2024/01/29 02:19:16;;;;;;;8.93;4.30;;;;;;;-141.97;87.38;45951.06;4977191;28;20179;-83
2024/01/29 02:21:42;;;;;;;7.67;4.23;;;;;;;-141.97;87.75;45966.44;4995000;28;20176;-83
2024/01/29 02:24:07;;;;;;;6.40;4.10;;;;;;;-141.97;87.75;45908.78;5010359;28;20406;-84
2024/01/29 02:26:32;;;;;;;7.90;4.27;;;;;;;-141.97;87.25;46066.31;4991727;28;20511;-83
2024/01/29 02:28:58;;;;;;;8.30;4.20;;;;;;;-141.97;87.39;46024.06;5019434;28;20205;-84
2024/01/29 02:31:23;;;;;;;8.90;4.80;;;;;;;-141.97;87.47;46458.28;5014000;28;20221;-82
2024/01/29 02:33:49;;;;;;;9.40;4.53;;;;;;;-141.97;87.26;46156.63;5010930;28;20195;-84
2024/01/29 02:36:16;;;;;;;8.73;4.67;;;;;;;-141.97;87.82;46056.72;5011414;28;20556;-83
2024/01/29 02:38:42;;;;;;;9.00;5.03;;;;;;;-141.97;88.18;46433.28;4994136;28;20421;-84
2024/01/29 02:41:08;;;;;;;8.87;4.93;;;;;;;-141.97;88.48;46012.53;4979498;28;20430;-85
2024/01/29 02:43:33;;;;;;;12.83;6.10;;;;;;;-141.97;88.89;45989.47;4994888;28;20406;-84
2024/01/29 02:45:59;;;;;;;12.33;6.30;;;;;;;-141.97;88.33;46062.47;4978035;28;20192;-84
2024/01/29 02:48:24;;;;;;;17.70;9.60;;;;;;;-141.97;87.68;46139.34;4994216;28;20174;-83
2024/01/29 02:50:50;;;;;;;13.57;7.00;;;;;;;-141.97;87.45;46508.22;4978842;28;20261;-84
2024/01/29 02:53:15;;;;;;;13.00;7.90;;;;;;;-141.97;87.73;46467.88;4979740;28;20559;-84
2024/01/29 02:55:41;;;;;;;13.43;8.07;;;;;;;-141.97;88.02;46014.44;4973609;28;20683;-84
2024/01/29 02:58:06;;;;;;;12.73;7.83;;;;;;;-141.97;88.05;46077.84;4990857;28;20719;-83
2024/01/29 03:00:31;;;;;;;20.63;11.23;;;;;;;-141.97;88.63;46172.00;4957748;28;20550;-83
2024/01/29 03:02:57;;;;;;;26.83;14.87;;;;;;;-141.97;88.77;46358.38;4990918;28;20698;-84
2024/01/29 03:05:23;;;;;;;26.40;16.20;;;;;;;-141.97;88.86;46469.81;4992610;28;20277;-84
2024/01/29 03:07:48;;;;;;;22.97;13.07;;;;;;;-141.97;88.66;46166.22;4978437;28;20282;-85
2024/01/29 03:10:14;;;;;;;29.87;14.20;;;;;;;-141.97;88.65;46156.63;4977302;28;20196;-83
2024/01/29 03:12:39;;;;;;;28.97;13.73;;;;;;;-141.97;89.02;46001.00;4961382;28;20167;-84
2024/01/29 03:15:05;;;;;;;34.20;14.97;;;;;;;-141.97;89.85;46191.22;4976960;28;20195;-83
2024/01/29 03:17:30;;;;;;;20.20;10.00;;;;;;;-141.97;89.53;46168.16;4993502;28;20266;-83
2024/01/29 03:19:56;;;;;;;23.77;12.40;;;;;;;-141.97;88.77;46402.56;4995457;28;20290;-82
2024/01/29 03:22:22;;;;;;;24.57;11.53;;;;;;;-141.97;89.59;46318.00;4976418;28;20187;-84
2024/01/29 03:24:47;;;;;;;22.13;9.90;;;;;;;-141.97;89.93;46135.50;4976274;28;20216;-83
2024/01/29 03:27:12;;;;;;;19.23;9.33;;;;;;;-141.97;90.34;46166.22;4992299;28;20665;-85
2024/01/29 03:29:38;;;;;;;18.83;9.30;;;;;;;-141.97;90.57;46189.28;4997419;28;20261;-83
2024/01/29 03:32:04;;;;;;;22.53;10.27;;;;;;;-141.97;90.62;46389.09;4996503;28;20647;-84
2024/01/29 03:34:29;;;;;;;21.93;10.73;;;;;;;-141.97;90.56;46074.00;4981155;28;20190;-83
2024/01/29 03:36:54;;;;;;;24.23;11.40;;;;;;;-141.97;90.85;46160.47;5022241;28;20159;-82
2024/01/29 03:39:20;;;;;;;35.17;16.47;;;;;;;-141.97;91.17;46025.97;5010413;28;20167;-82
2024/01/29 03:41:45;;;;;;;29.83;14.43;;;;;;;-141.97;90.58;45966.44;5026779;28;20170;-84
2024/01/29 03:44:13;;;;;;;30.40;15.00;;;;;;;-141.97;90.39;46168.16;4999303;28;20206;-83
2024/01/29 03:46:38;;;;;;;29.13;15.07;;;;;;;-141.97;90.05;46527.44;5013748;28;20238;-83
2024/01/29 03:49:04;;;;;;;32.17;15.57;;;;;;;-141.97;90.32;46162.38;4995919;28;20770;-85
2024/01/29 03:51:29;;;;;;;32.43;17.00;;;;;;;-141.97;90.45;46164.31;4995476;28;20193;-84
2024/01/29 03:53:54;;;;;;;35.20;19.67;;;;;;;-141.97;90.03;46162.38;4996286;28;20191;-85
2024/01/29 03:56:20;;;;;;;61.70;29.07;;;;;;;-141.97;90.25;46148.94;4996543;28;20159;-84
2024/01/29 03:58:45;;;;;;;123.60;54.83;;;;;;;-141.97;90.33;46108.59;4995804;28;20656;-86
2024/01/29 04:01:11;;;;;;;76.83;32.10;;;;;;;-141.97;89.95;46150.84;4995722;28;20170;-85
2024/01/29 04:03:39;;;;;;;78.57;36.90;;;;;;;-141.97;89.67;46391.03;5013334;28;20274;-84
2024/01/29 04:06:06;;;;;;;50.90;24.23;;;;;;;-141.97;90.00;46064.41;4995466;28;20170;-84
2024/01/29 04:08:31;;;;;;;34.30;17.03;;;;;;;-141.97;90.33;46139.34;5012694;28;20414;-84
2024/01/29 04:10:56;;;;;;;43.53;23.53;;;;;;;-141.97;90.59;46569.72;4995479;28;20465;-83
2024/01/29 04:13:22;;;;;;;51.83;24.37;;;;;;;-141.97;90.92;46087.47;4980481;28;20679;-85
2024/01/29 04:15:47;;;;;;;34.73;18.10;;;;;;;-141.97;90.85;46198.91;4995694;28;20174;-85
2024/01/29 04:18:13;;;;;;;36.97;18.37;;;;;;;-141.97;91.58;46585.09;4996323;28;20189;-84
2024/01/29 04:20:38;;;;;;;35.90;17.77;;;;;;;-141.97;91.75;46072.09;4980223;28;20273;-85
2024/01/29 04:23:04;;;;;;;34.67;16.53;;;;;;;-141.97;91.19;46189.28;5013248;28;20161;-84
2024/01/29 04:25:29;;;;;;;37.17;19.57;;;;;;;-141.97;91.55;45916.47;4995056;28;20222;-84
2024/01/29 04:27:54;;;;;;;27.57;14.77;;;;;;;-141.97;91.14;46160.47;5011779;28;20237;-85
2024/01/29 04:30:20;;;;;;;32.13;17.80;;;;;;;-141.97;91.14;46216.19;5011713;28;20600;-84
2024/01/29 04:32:45;;;;;;;22.33;12.70;;;;;;;-141.97;90.88;46285.34;4995316;28;20539;-84
2024/01/29 04:35:11;;;;;;;31.97;16.13;;;;;;;-141.97;90.77;46195.06;4995064;28;20162;-85
2024/01/29 04:37:36;;;;;;;32.43;18.23;;;;;;;-141.97;90.29;46177.75;4978705;28;20685;-84
2024/01/29 04:40:02;;;;;;;97.57;43.47;;;;;;;-141.97;90.56;46538.97;4994979;28;20163;-85
2024/01/29 04:42:27;;;;;;;74.60;32.67;;;;;;;-141.97;91.52;46154.69;5012150;28;20186;-85
2024/01/29 04:44:53;;;;;;;46.53;23.27;;;;;;;-141.97;91.57;46266.13;4979010;28;20171;-85
2024/01/29 04:47:18;;;;;;;52.97;24.17;;;;;;;-141.97;91.09;46158.53;5012785;28;20533;-85
2024/01/29 04:49:44;;;;;;;43.57;20.80;;;;;;;-141.97;92.04;46206.56;5014103;28;20615;-84
2024/01/29 04:52:09;;;;;;;98.80;32.47;;;;;;;-141.97;93.46;46198.91;4995897;28;20194;-84
2024/01/29 04:54:34;;;;;;;88.60;31.57;;;;;;;-141.97;94.98;46369.88;4994544;28;20186;-83
2024/01/29 04:57:00;;;;;;;58.07;24.47;;;;;;;-141.97;96.38;46173.91;4994740;28;20190;-84
2024/01/29 04:59:25;;;;;;;69.43;27.13;;;;;;;-141.97;98.03;46191.22;4994788;28;20206;-84
2024/01/29 05:01:51;;;;;;;37.93;17.40;;;;;;;-141.97;99.85;46104.75;4994683;28;20171;-85
2024/01/29 05:04:16;;;;;;;70.37;26.60;;;;;;;-141.97;100.00;46195.06;5011323;28;20227;-84
2024/01/29 05:06:41;;;;;;;51.07;24.07;;;;;;;-141.97;100.00;46367.97;4978273;28;20193;-84
2024/01/29 05:09:09;;;;;;;33.03;17.17;;;;;;;-141.97;100.00;45949.13;4994455;28;20159;-84
2024/01/29 05:11:37;;;;;;;34.03;17.20;;;;;;;-141.97;100.00;46227.72;4978633;28;20205;-87
2024/01/29 05:14:03;;;;;;;31.87;13.93;;;;;;;-141.97;100.00;46179.69;4994895;28;20456;-84
2024/01/29 05:16:29;;;;;;;27.83;13.20;;;;;;;-141.97;100.00;46208.50;5012133;28;20405;-84
2024/01/29 05:18:54;;;;;;;29.40;13.63;;;;;;;-141.97;100.00;46427.53;4994549;28;20186;-83
2024/01/29 05:21:20;;;;;;;28.00;13.50;;;;;;;-141.97;100.00;46558.19;4994458;28;20472;-85
2024/01/29 05:23:45;;;;;;;46.53;22.27;;;;;;;-141.97;100.00;46214.25;4994384;28;20155;-83
2024/01/29 05:26:11;;;;;;;40.87;20.37;;;;;;;-141.97;100.00;46481.34;4993100;28;20218;-82
2024/01/29 05:28:36;;;;;;;39.83;20.47;;;;;;;-141.97;100.00;46193.13;4977668;28;20612;-84
2024/01/29 05:31:01;;;;;;;23.67;13.00;;;;;;;-141.97;100.00;46158.53;4977502;28;20542;-84
2024/01/29 05:33:27;;;;;;;23.17;12.83;;;;;;;-141.97;100.00;46448.66;4978597;28;20198;-84
2024/01/29 05:35:53;;;;;;;24.67;12.17;;;;;;;-141.97;100.00;46450.59;5014375;28;20229;-83
2024/01/29 05:38:19;;;;;;;26.00;12.70;;;;;;;-141.97;100.00;46260.38;4994246;28;20175;-83
2024/01/29 05:40:44;;;;;;;32.10;13.80;;;;;;;-141.97;100.00;46467.88;5010052;28;20800;-83
2024/01/29 05:43:10;;;;;;;58.70;25.03;;;;;;;-141.97;100.00;46158.53;4977768;28;20163;-84
2024/01/29 05:45:35;;;;;;;53.73;23.10;;;;;;;-141.97;100.00;46039.44;4977073;28;20552;-83
2024/01/29 05:48:03;;;;;;;28.00;14.60;;;;;;;-141.97;100.00;46216.19;4981801;28;20171;-84
2024/01/29 05:50:29;;;;;;;23.50;11.97;;;;;;;-141.97;100.00;46204.66;5015412;28;20174;-85
2024/01/29 05:52:54;;;;;;;22.90;10.83;;;;;;;-141.97;100.00;46237.31;5028744;28;20800;-84
2024/01/29 05:55:20;;;;;;;26.03;11.50;;;;;;;-141.97;100.00;46162.38;5034321;28;20187;-84
2024/01/29 05:57:45;;;;;;;28.73;12.60;;;;;;;-141.97;100.00;46158.53;5001635;28;20336;-84
2024/01/29 06:00:12;;;;;;;24.30;11.67;;;;;;;-141.97;100.00;46143.19;5034947;28;20186;-83
2024/01/29 06:02:42;;;;;;;24.30;11.53;;;;;;;-141.97;100.00;46110.50;5020851;28;20163;-83
2024/01/29 06:05:12;;;;;;;21.83;9.50;;;;;;;-141.97;100.00;46173.91;5001151;28;20440;-85
2024/01/29 06:07:38;;;;;;;22.17;10.07;;;;;;;-141.97;100.00;46212.34;4993653;28;20422;-85
2024/01/29 06:10:04;;;;;;;19.27;9.77;;;;;;;-141.97;96.55;46085.53;5011116;28;20429;-85
2024/01/29 06:12:30;;;;;;;21.87;9.90;;;;;;;-141.97;94.03;46195.06;4992768;28;20889;-84
2024/01/29 06:14:55;;;;;;;17.23;8.87;;;;;;;-141.97;91.64;46147.03;5011073;28;20531;-85
2024/01/29 06:17:21;;;;;;;17.13;9.10;;;;;;;-141.97;89.24;46089.38;5010804;28;20171;-84
2024/01/29 06:19:46;;;;;;;20.50;9.50;;;;;;;-141.97;88.14;45958.75;5012565;28;20174;-84
2024/01/29 06:22:11;;;;;;;14.97;8.00;;;;;;;-141.97;87.07;46196.97;5012284;28;20190;-85
2024/01/29 06:24:37;;;;;;;13.03;7.23;;;;;;;-141.97;85.62;46195.06;5011845;28;20170;-85
2024/01/29 06:27:02;;;;;;;14.30;7.33;;;;;;;-141.97;84.07;46404.47;5010336;28;20166;-85
2024/01/29 06:29:28;;;;;;;14.67;7.30;;;;;;;-141.97;81.98;46112.44;5009623;28;20194;-84
2024/01/29 06:31:53;;;;;;;15.03;7.23;;;;;;;-141.97;81.46;45977.94;5009319;28;20170;-85
2024/01/29 06:34:23;;;;;;;12.57;6.53;;;;;;;-141.97;79.63;46087.47;5011511;28;20269;-86
2024/01/29 06:36:51;;;;;;;14.00;7.47;;;;;;;-141.97;78.57;46189.28;4997188;28;20178;-86
2024/01/29 06:39:17;;;;;;;13.13;6.53;;;;;;;-141.97;78.24;46162.38;4992876;28;20410;-86
2024/01/29 06:41:42;;;;;;;11.43;6.47;;;;;;;-141.97;77.20;46045.19;4976893;28;20436;-86
2024/01/29 06:44:08;;;;;;;14.10;6.80;;;;;;;-141.97;76.63;46208.50;4992772;28;20185;-86
2024/01/29 06:46:33;;;;;;;13.60;7.20;;;;;;;-141.97;76.09;46456.34;4992882;28;20163;-87
2024/01/29 06:48:59;;;;;;;13.77;6.80;;;;;;;-141.97;75.36;46546.66;4993061;28;20170;-85
2024/01/29 06:51:24;;;;;;;15.97;7.57;;;;;;;-141.97;75.16;46581.25;4992859;28;20650;-86
2024/01/29 06:53:50;;;;;;;14.50;7.47;;;;;;;-141.97;74.05;45960.66;4976401;28;20670;-86
2024/01/29 06:56:15;;;;;;;11.97;6.60;;;;;;;-141.97;73.30;46173.91;4994488;28;20163;-85
2024/01/29 06:58:41;;;;;;;14.00;7.13;;;;;;;-141.97;73.61;46162.38;4979136;28;20178;-87
2024/01/29 07:01:06;;;;;;;14.00;6.93;;;;;;;-141.97;72.92;46143.19;4992932;28;20171;-86
2024/01/29 07:03:32;;;;;;;15.43;6.80;;;;;;;-141.97;72.26;46181.59;4992446;28;20166;-85
2024/01/29 07:05:58;;;;;;;12.27;6.43;;;;;;;-141.97;70.29;46556.28;4992613;28;20615;-86
2024/01/29 07:08:24;;;;;;;15.03;6.30;;;;;;;-141.97;69.37;46154.69;4992730;28;20185;-86
2024/01/29 07:10:49;;;;;;;15.00;6.20;;;;;;;-141.97;67.32;46156.63;4992795;28;20185;-86
2024/01/29 07:13:15;;;;;;;11.33;6.43;;;;;;;-141.97;67.84;46164.31;4992735;28;20446;-87
2024/01/29 07:15:41;;;;;;;15.50;6.50;;;;;;;-141.97;67.55;45922.25;4992627;28;20159;-87
2024/01/29 07:18:06;;;;;;;12.97;6.00;;;;;;;-141.97;67.92;46181.59;4976255;28;20183;-85
2024/01/29 07:20:38;;;;;;;16.87;7.23;;;;;;;-141.97;67.26;46070.16;5010289;28;20159;-89
2024/01/29 07:23:07;;;;;;;14.37;6.67;;;;;;;-141.97;66.89;46123.97;4993616;28;20167;-87
2024/01/29 07:25:35;;;;;;;14.27;6.37;;;;;;;-141.97;63.99;46248.84;4992600;28;20895;-85
2024/01/29 07:28:04;;;;;;;15.20;6.67;;;;;;;-141.97;62.49;46139.34;5010755;28;20491;-86
2024/01/29 07:30:29;;;;;;;12.67;6.10;;;;;;;-141.97;60.17;46137.41;5010631;28;20416;-87
2024/01/29 07:32:56;;;;;;;15.40;7.13;;;;;;;-141.97;58.87;46104.75;4976121;28;20429;-87
2024/01/29 07:35:22;;;;;;;15.53;6.70;;;;;;;-141.97;59.92;45977.94;5008454;28;20195;-86
2024/01/29 07:37:47;;;;;;;18.03;8.90;;;;;;;-141.97;59.76;46385.25;4977612;28;20815;-86
2024/01/29 07:40:12;;;;;;;12.43;6.90;;;;;;;-141.97;59.01;46419.84;4993024;28;20635;-87
2024/01/29 07:42:38;;;;;;;14.70;7.33;;;;;;;-141.97;58.73;46275.75;4993258;28;20193;-87
2024/01/29 07:45:04;;;;;;;14.80;7.57;;;;;;;-141.97;58.33;46391.03;4977463;28;20576;-87
2024/01/29 07:47:29;;;;;;;9.63;5.43;;;;;;;-141.97;56.79;46202.72;4992211;28;20163;-87
2024/01/29 07:49:55;;;;;;;12.63;5.80;;;;;;;-141.97;56.70;46024.06;4995751;28;20163;-87
2024/01/29 07:52:20;;;;;;;12.13;6.10;;;;;;;-141.97;55.55;46039.44;5018171;28;20186;-87
2024/01/29 07:54:46;;;;;;;12.27;6.20;;;;;;;-141.97;55.84;46166.22;4983509;28;20195;-88
2024/01/29 07:57:11;;;;;;;12.83;6.10;;;;;;;-141.97;56.15;46129.72;5021339;28;20174;-87
2024/01/29 07:59:36;;;;;;;11.77;6.60;;;;;;;-141.97;56.10;46097.06;4981436;28;20170;-86
2024/01/29 08:02:02;;;;;;;17.33;8.00;;;;;;;-141.97;56.16;46012.53;5005435;28;20174;-87
2024/01/29 08:04:27;;;;;;;19.57;7.73;;;;;;;-141.97;56.20;46020.22;4997092;28;20169;-87
2024/01/29 08:06:53;;;;;;;17.97;9.00;;;;;;;-141.97;56.25;46027.91;5017710;28;20173;-87
2024/01/29 08:09:18;;;;;;;19.00;8.67;;;;;;;-141.97;56.09;45974.09;4983562;28;20175;-87
2024/01/29 08:11:44;;;;;;;18.00;7.90;;;;;;;-141.97;55.85;46118.19;4995337;28;20555;-87
2024/01/29 08:14:09;;;;;;;15.13;6.73;;;;;;;-141.97;55.29;46515.91;4995831;28;20277;-89
2024/01/29 08:16:35;;;;;;;17.47;7.67;;;;;;;-141.97;55.61;46154.69;4979072;28;20178;-87
2024/01/29 08:19:00;;;;;;;19.07;8.37;;;;;;;-141.97;55.72;45868.44;4995283;28;20171;-87
2024/01/29 08:21:26;;;;;;;18.03;8.30;;;;;;;-141.97;54.96;46414.09;4995157;28;20166;-87
2024/01/29 08:23:51;;;;;;;19.27;8.13;;;;;;;-141.97;54.72;46458.28;5011633;28;20163;-86
2024/01/29 08:26:17;;;;;;;16.47;8.03;;;;;;;-141.97;54.89;46145.09;4993670;28;20241;-86
2024/01/29 08:28:42;;;;;;;17.30;7.47;;;;;;;-141.97;54.39;46037.50;4994104;28;20550;-87
2024/01/29 08:31:09;;;;;;;19.17;7.80;;;;;;;-141.97;54.20;46392.94;4978389;28;20642;-87
2024/01/29 08:33:34;;;;;;;19.57;7.67;;;;;;;-141.97;54.06;46216.19;4994273;28;20194;-86
2024/01/29 08:36:00;;;;;;;19.13;7.63;;;;;;;-141.97;53.24;46120.13;4993719;28;20890;-87
2024/01/29 08:38:25;;;;;;;18.90;6.80;;;;;;;-141.97;53.15;46127.81;4994002;28;20174;-87
2024/01/29 08:40:51;;;;;;;12.90;5.50;;;;;;;-141.97;52.17;45866.53;5011422;28;20626;-87
2024/01/29 08:43:16;;;;;;;11.17;6.10;;;;;;;-141.97;52.12;46122.03;4977605;28;20602;-88
2024/01/29 08:45:42;;;;;;;10.40;5.20;;;;;;;-141.97;52.51;46131.66;4979281;28;20205;-86
2024/01/29 08:48:07;;;;;;;9.00;4.40;;;;;;;-141.97;51.97;46122.03;5013907;28;20190;-87
2024/01/29 08:50:33;;;;;;;10.23;5.57;;;;;;;-141.97;52.34;46129.72;5033769;28;20690;-87
2024/01/29 08:52:59;;;;;;;11.50;5.53;;;;;;;-141.97;52.49;46519.75;5016396;28;20186;-87
2024/01/29 08:55:24;;;;;;;9.80;4.70;;;;;;;-141.97;51.56;46074.00;4987270;28;20410;-87
2024/01/29 08:57:49;;;;;;;10.70;5.27;;;;;;;-141.97;51.56;46127.81;4994233;28;20669;-87
2024/01/29 09:00:15;;;;;;;8.13;5.37;;;;;;;-141.97;51.42;46120.13;4993791;28;20662;-86
2024/01/29 09:02:41;;;;;;;11.93;5.17;;;;;;;-141.97;51.37;45929.91;4992887;28;20270;-88
2024/01/29 09:05:07;;;;;;;8.80;5.00;;;;;;;-141.97;50.61;46091.31;4977416;28;20209;-87
2024/01/29 09:07:33;;;;;;;9.87;5.60;;;;;;;-141.97;49.21;46385.25;5010204;28;20167;-86
2024/01/29 09:09:58;;;;;;;9.73;5.17;;;;;;;-141.97;48.47;46129.72;4994944;28;20927;-87
2024/01/29 09:12:24;;;;;;;10.10;5.10;;;;;;;-141.97;47.08;45889.56;4977899;28;20174;-88
2024/01/29 09:14:49;;;;;;;15.03;5.70;;;;;;;-141.97;46.21;46304.56;4993885;28;20187;-87
2024/01/29 09:17:14;;;;;;;10.07;5.13;;;;;;;-141.97;45.02;46289.19;4994393;28;20592;-86
2024/01/29 09:19:40;;;;;;;9.07;5.33;;;;;;;-141.97;45.21;46008.69;5010368;28;20631;-86
2024/01/29 09:22:05;;;;;;;9.23;5.33;;;;;;;-141.97;45.29;46043.28;5009862;28;20158;-87
2024/01/29 09:24:49;;;;;;;9.53;5.33;;;;;;;-141.97;45.94;46223.88;5011601;28;20220;-86
2024/01/29 09:27:16;;;;;;;12.73;5.27;;;;;;;-141.97;45.75;46229.63;4975115;28;20191;-85
2024/01/29 09:29:42;;;;;;;12.23;5.00;;;;;;;-141.97;45.12;46343.00;4977607;28;20619;-87
2024/01/29 09:32:08;;;;;;;8.03;4.90;;;;;;;-141.97;45.63;46058.63;5007658;28;20166;-86
2024/01/29 09:34:33;;;;;;;8.20;5.20;;;;;;;-141.97;44.68;45945.28;4975897;28;20207;-87
2024/01/29 09:36:58;;;;;;;11.60;5.77;;;;;;;-141.97;44.87;45989.47;4991383;28;20183;-86
2024/01/29 09:39:27;;;;;;;9.20;5.60;;;;;;;-141.97;43.64;46035.59;5002110;28;20643;-86
2024/01/29 09:41:54;;;;;;;7.93;5.20;;;;;;;-141.97;44.08;46047.13;5018333;28;20194;-86
2024/01/29 09:44:20;;;;;;;11.57;5.40;;;;;;;-141.97;44.68;46452.50;4991674;28;20236;-86
2024/01/29 09:46:45;;;;;;;6.03;4.23;;;;;;;-141.97;44.25;46014.44;4990627;28;20174;-86
2024/01/29 09:49:11;;;;;;;7.53;4.77;;;;;;;-141.97;44.29;46060.56;4974287;28;20175;-86
2024/01/29 09:51:36;;;;;;;14.37;6.97;;;;;;;-141.97;43.84;45806.97;4990847;28;20164;-87
2024/01/29 09:54:02;;;;;;;9.80;5.73;;;;;;;-141.97;43.90;46016.38;4990583;28;20563;-86
2024/01/29 09:56:28;;;;;;;7.70;4.80;;;;;;;-141.97;43.11;45926.06;4974094;28;20595;-86
2024/01/29 09:58:54;;;;;;;7.57;4.80;;;;;;;-141.97;42.52;45839.63;4990091;28;20170;-86
2024/01/29 10:01:20;;;;;;;13.07;5.60;;;;;;;-141.97;42.32;46475.56;4990604;28;20171;-87
2024/01/29 10:03:45;;;;;;;7.30;4.10;;;;;;;-141.97;40.83;45853.06;5006032;28;20155;-87
2024/01/29 10:06:13;;;;;;;15.47;8.37;;;;;;;-141.97;41.26;45931.84;4989749;28;20171;-87
2024/01/29 10:08:39;;;;;;;7.53;5.03;;;;;;;-141.97;41.10;45918.41;5010262;28;20164;-87
2024/01/29 10:11:05;;;;;;;9.33;4.80;;;;;;;-141.97;39.92;45918.41;4990014;28;20166;-86
2024/01/29 10:13:31;;;;;;;6.43;4.70;;;;;;;-141.97;39.64;46337.22;4992223;28;20658;-86
2024/01/29 10:15:56;;;;;;;8.87;4.80;;;;;;;-141.97;39.67;45977.94;4991387;28;20175;-88
2024/01/29 10:18:22;;;;;;;8.60;4.77;;;;;;;-141.97;39.75;45985.63;4992366;28;20703;-86
2024/01/29 10:20:57;;;;;;;7.03;4.97;;;;;;;-141.97;39.31;46173.91;4990640;28;20198;-87
2024/01/29 10:23:23;;;;;;;7.73;5.07;;;;;;;-141.97;39.25;46341.06;5008348;28;20237;-87
2024/01/29 10:25:57;;;;;;;9.83;5.60;;;;;;;-141.97;39.23;46216.19;4991127;28;20216;-87
2024/01/29 10:28:26;;;;;;;11.20;5.13;;;;;;;-141.97;38.69;45851.16;4984366;28;20184;-86
2024/01/29 10:30:56;;;;;;;9.63;6.00;;;;;;;-141.97;38.51;45914.56;4995064;28;20580;-86
2024/01/29 10:33:22;;;;;;;8.03;5.33;;;;;;;-141.97;38.37;46277.66;5005683;28;20256;-86
2024/01/29 10:35:48;;;;;;;10.70;6.67;;;;;;;-141.97;37.64;45956.81;4980812;28;20172;-85
2024/01/29 10:38:13;;;;;;;9.10;6.40;;;;;;;-141.97;37.87;46002.94;4988486;28;20171;-87
2024/01/29 10:40:41;;;;;;;9.40;5.90;;;;;;;-141.97;38.34;45968.34;4976826;28;20191;-87
2024/01/29 10:43:06;;;;;;;14.07;7.20;;;;;;;-141.97;37.83;45931.84;4988366;28;20253;-86
2024/01/29 10:45:34;;;;;;;12.60;7.63;;;;;;;-141.97;40.08;46031.75;4955394;28;20242;-85
2024/01/29 10:48:05;;;;;;;11.07;6.50;;;;;;;-141.97;39.51;46239.25;4970856;28;20278;-85
2024/01/29 10:50:31;;;;;;;10.60;6.63;;;;;;;-141.97;38.90;46148.94;4970809;28;20199;-85
2024/01/29 10:52:56;;;;;;;10.87;6.50;;;;;;;-141.97;37.97;45916.47;4985638;28;20609;-83
2024/01/29 10:55:22;;;;;;;12.10;7.03;;;;;;;-141.97;37.37;45977.94;4969863;28;20640;-82
2024/01/29 10:57:47;;;;;;;9.10;5.93;;;;;;;-141.97;37.14;45964.50;4985730;28;20168;-83
2024/01/29 11:00:14;;;;;;;8.80;5.73;;;;;;;-141.97;37.05;45997.16;4986231;28;20164;-82
2024/01/29 11:02:40;;;;;;;8.80;4.90;;;;;;;-141.97;37.39;45951.06;4969981;28;20259;-83